sensor_id;sensor_type;location;lat;lon;timestamp;P1;durP1;ratioP1;P2;durP2;ratioP2
77828;SDS011;67019;51.034;3.728;2023-05-10T00:00:28;15.78;;;10.68;;
77828;SDS011;67019;51.034;3.728;2023-05-10T00:02:57;22.42;;;11.05;;
77828;SDS011;67019;51.034;3.728;2023-05-10T00:05:26;29.63;;;11.85;;
77828;SDS011;67019;51.034;3.728;2023-05-10T00:07:53;24.85;;;12.18;;
77828;SDS011;67019;51.034;3.728;2023-05-10T00:10:21;24.92;;;12.50;;
77828;SDS011;67019;51.034;3.728;2023-05-10T00:12:49;26.93;;;12.73;;
77828;SDS011;67019;51.034;3.728;2023-05-10T00:15:16;25.70;;;11.90;;
77828;SDS011;67019;51.034;3.728;2023-05-10T00:17:44;26.27;;;12.43;;
77828;SDS011;67019;51.034;3.728;2023-05-10T00:20:11;20.50;;;11.93;;
77828;SDS011;67019;51.034;3.728;2023-05-10T00:22:39;27.65;;;13.88;;
77828;SDS011;67019;51.034;3.728;2023-05-10T00:25:09;29.40;;;12.15;;
77828;SDS011;67019;51.034;3.728;2023-05-10T00:27:36;35.33;;;14.20;;
77828;SDS011;67019;51.034;3.728;2023-05-10T00:30:04;29.85;;;12.88;;
77828;SDS011;67019;51.034;3.728;2023-05-10T00:32:32;30.15;;;16.07;;
77828;SDS011;67019;51.034;3.728;2023-05-10T00:35:00;33.80;;;15.13;;
77828;SDS011;67019;51.034;3.728;2023-05-10T00:37:27;28.83;;;14.03;;
77828;SDS011;67019;51.034;3.728;2023-05-10T00:39:55;30.90;;;14.85;;
77828;SDS011;67019;51.034;3.728;2023-05-10T00:42:22;36.48;;;15.98;;
77828;SDS011;67019;51.034;3.728;2023-05-10T00:44:52;31.00;;;16.05;;
77828;SDS011;67019;51.034;3.728;2023-05-10T00:47:19;31.62;;;15.85;;
77828;SDS011;67019;51.034;3.728;2023-05-10T00:49:47;27.77;;;15.68;;
77828;SDS011;67019;51.034;3.728;2023-05-10T00:52:15;27.73;;;15.85;;
77828;SDS011;67019;51.034;3.728;2023-05-10T00:54:43;40.80;;;17.80;;
77828;SDS011;67019;51.034;3.728;2023-05-10T00:57:11;34.15;;;17.15;;
77828;SDS011;67019;51.034;3.728;2023-05-10T00:59:38;39.18;;;17.70;;
77828;SDS011;67019;51.034;3.728;2023-05-10T01:02:06;35.68;;;16.73;;
77828;SDS011;67019;51.034;3.728;2023-05-10T01:04:34;36.40;;;17.15;;
77828;SDS011;67019;51.034;3.728;2023-05-10T01:07:04;39.18;;;18.52;;
77828;SDS011;67019;51.034;3.728;2023-05-10T01:09:33;35.73;;;18.32;;
77828;SDS011;67019;51.034;3.728;2023-05-10T01:12:01;41.33;;;19.35;;
77828;SDS011;67019;51.034;3.728;2023-05-10T01:14:29;41.40;;;20.70;;
77828;SDS011;67019;51.034;3.728;2023-05-10T01:16:57;44.15;;;21.68;;
77828;SDS011;67019;51.034;3.728;2023-05-10T01:19:28;42.33;;;21.00;;
77828;SDS011;67019;51.034;3.728;2023-05-10T01:27:16;34.53;;;20.20;;
77828;SDS011;67019;51.034;3.728;2023-05-10T01:35:40;42.40;;;21.80;;
77828;SDS011;67019;51.034;3.728;2023-05-10T01:44:01;46.37;;;24.50;;
77828;SDS011;67019;51.034;3.728;2023-05-10T01:46:36;44.67;;;22.77;;
77828;SDS011;67019;51.034;3.728;2023-05-10T01:49:11;43.87;;;20.60;;
77828;SDS011;67019;51.034;3.728;2023-05-10T01:51:50;41.53;;;21.52;;
77828;SDS011;67019;51.034;3.728;2023-05-10T01:54:21;44.90;;;22.95;;
77828;SDS011;67019;51.034;3.728;2023-05-10T01:56:52;42.45;;;21.27;;
77828;SDS011;67019;51.034;3.728;2023-05-10T02:01:50;34.88;;;18.90;;
77828;SDS011;67019;51.034;3.728;2023-05-10T02:04:19;43.87;;;20.92;;
77828;SDS011;67019;51.034;3.728;2023-05-10T02:06:50;40.40;;;19.80;;
77828;SDS011;67019;51.034;3.728;2023-05-10T02:09:20;43.80;;;20.20;;
77828;SDS011;67019;51.034;3.728;2023-05-10T02:11:50;41.73;;;17.65;;
77828;SDS011;67019;51.034;3.728;2023-05-10T02:14:18;35.20;;;18.80;;
77828;SDS011;67019;51.034;3.728;2023-05-10T02:16:46;38.80;;;18.45;;
77828;SDS011;67019;51.034;3.728;2023-05-10T02:19:16;33.63;;;18.45;;
77828;SDS011;67019;51.034;3.728;2023-05-10T02:21:45;34.20;;;18.77;;
77828;SDS011;67019;51.034;3.728;2023-05-10T02:24:13;28.92;;;15.88;;
77828;SDS011;67019;51.034;3.728;2023-05-10T02:26:42;34.65;;;18.00;;
77828;SDS011;67019;51.034;3.728;2023-05-10T02:29:11;36.48;;;20.82;;
77828;SDS011;67019;51.034;3.728;2023-05-10T02:31:40;41.37;;;18.92;;
77828;SDS011;67019;51.034;3.728;2023-05-10T02:34:09;34.25;;;17.45;;
77828;SDS011;67019;51.034;3.728;2023-05-10T02:36:38;33.10;;;18.85;;
77828;SDS011;67019;51.034;3.728;2023-05-10T02:39:06;36.20;;;18.45;;
77828;SDS011;67019;51.034;3.728;2023-05-10T02:41:37;41.13;;;17.62;;
77828;SDS011;67019;51.034;3.728;2023-05-10T02:44:07;37.45;;;18.70;;
77828;SDS011;67019;51.034;3.728;2023-05-10T02:46:35;39.92;;;18.20;;
77828;SDS011;67019;51.034;3.728;2023-05-10T02:49:03;29.12;;;15.80;;
77828;SDS011;67019;51.034;3.728;2023-05-10T02:51:31;33.05;;;16.40;;
77828;SDS011;67019;51.034;3.728;2023-05-10T02:54:12;31.55;;;16.55;;
77828;SDS011;67019;51.034;3.728;2023-05-10T02:56:40;27.55;;;14.33;;
77828;SDS011;67019;51.034;3.728;2023-05-10T02:59:09;30.32;;;13.68;;
77828;SDS011;67019;51.034;3.728;2023-05-10T03:01:37;35.15;;;17.85;;
77828;SDS011;67019;51.034;3.728;2023-05-10T03:04:08;32.70;;;18.65;;
77828;SDS011;67019;51.034;3.728;2023-05-10T03:06:35;30.97;;;17.42;;
77828;SDS011;67019;51.034;3.728;2023-05-10T03:09:04;28.98;;;15.35;;
77828;SDS011;67019;51.034;3.728;2023-05-10T03:17:20;28.90;;;15.25;;
77828;SDS011;67019;51.034;3.728;2023-05-10T03:22:37;25.23;;;13.45;;
77828;SDS011;67019;51.034;3.728;2023-05-10T03:25:06;32.58;;;17.57;;
77828;SDS011;67019;51.034;3.728;2023-05-10T03:27:37;30.23;;;15.28;;
77828;SDS011;67019;51.034;3.728;2023-05-10T03:30:10;33.23;;;17.02;;
77828;SDS011;67019;51.034;3.728;2023-05-10T03:32:39;37.17;;;16.05;;
77828;SDS011;67019;51.034;3.728;2023-05-10T03:35:07;30.57;;;14.23;;
77828;SDS011;67019;51.034;3.728;2023-05-10T03:37:39;31.67;;;17.43;;
77828;SDS011;67019;51.034;3.728;2023-05-10T03:40:06;31.05;;;16.60;;
77828;SDS011;67019;51.034;3.728;2023-05-10T03:42:34;32.60;;;16.62;;
77828;SDS011;67019;51.034;3.728;2023-05-10T03:45:02;36.85;;;17.07;;
77828;SDS011;67019;51.034;3.728;2023-05-10T03:47:30;29.40;;;16.90;;
77828;SDS011;67019;51.034;3.728;2023-05-10T03:49:58;35.80;;;17.00;;
77828;SDS011;67019;51.034;3.728;2023-05-10T03:52:25;32.35;;;16.93;;
77828;SDS011;67019;51.034;3.728;2023-05-10T03:54:55;32.88;;;17.92;;
77828;SDS011;67019;51.034;3.728;2023-05-10T03:57:22;29.50;;;15.10;;
77828;SDS011;67019;51.034;3.728;2023-05-10T03:59:52;36.83;;;16.05;;
77828;SDS011;67019;51.034;3.728;2023-05-10T04:02:19;31.00;;;16.07;;
77828;SDS011;67019;51.034;3.728;2023-05-10T04:04:48;39.27;;;19.20;;
77828;SDS011;67019;51.034;3.728;2023-05-10T04:07:16;34.27;;;16.95;;
77828;SDS011;67019;51.034;3.728;2023-05-10T04:09:44;32.33;;;17.77;;
77828;SDS011;67019;51.034;3.728;2023-05-10T04:12:13;35.70;;;17.60;;
77828;SDS011;67019;51.034;3.728;2023-05-10T04:14:42;40.35;;;20.43;;
77828;SDS011;67019;51.034;3.728;2023-05-10T04:17:09;33.13;;;17.27;;
77828;SDS011;67019;51.034;3.728;2023-05-10T04:19:37;38.78;;;17.98;;
77828;SDS011;67019;51.034;3.728;2023-05-10T04:22:04;35.43;;;19.23;;
77828;SDS011;67019;51.034;3.728;2023-05-10T04:24:32;34.23;;;19.62;;
77828;SDS011;67019;51.034;3.728;2023-05-10T04:27:00;39.78;;;20.75;;
77828;SDS011;67019;51.034;3.728;2023-05-10T04:29:28;43.95;;;22.27;;
77828;SDS011;67019;51.034;3.728;2023-05-10T04:31:55;38.58;;;20.08;;
77828;SDS011;67019;51.034;3.728;2023-05-10T04:34:23;43.28;;;21.37;;
77828;SDS011;67019;51.034;3.728;2023-05-10T04:36:51;44.83;;;21.55;;
77828;SDS011;67019;51.034;3.728;2023-05-10T04:39:18;43.02;;;20.10;;
77828;SDS011;67019;51.034;3.728;2023-05-10T04:41:46;38.45;;;21.25;;
77828;SDS011;67019;51.034;3.728;2023-05-10T04:44:13;40.33;;;21.37;;
77828;SDS011;67019;51.034;3.728;2023-05-10T04:46:43;43.80;;;22.27;;
77828;SDS011;67019;51.034;3.728;2023-05-10T04:49:10;40.23;;;21.70;;
77828;SDS011;67019;51.034;3.728;2023-05-10T04:51:41;43.95;;;20.75;;
77828;SDS011;67019;51.034;3.728;2023-05-10T04:54:09;46.75;;;22.17;;
77828;SDS011;67019;51.034;3.728;2023-05-10T04:56:37;43.40;;;22.82;;
77828;SDS011;67019;51.034;3.728;2023-05-10T04:59:05;43.17;;;22.07;;
77828;SDS011;67019;51.034;3.728;2023-05-10T05:01:33;43.70;;;23.20;;
77828;SDS011;67019;51.034;3.728;2023-05-10T05:04:00;42.00;;;21.97;;
77828;SDS011;67019;51.034;3.728;2023-05-10T05:06:28;48.05;;;22.90;;
77828;SDS011;67019;51.034;3.728;2023-05-10T05:08:56;45.25;;;22.48;;
77828;SDS011;67019;51.034;3.728;2023-05-10T05:11:23;47.27;;;21.17;;
77828;SDS011;67019;51.034;3.728;2023-05-10T05:13:51;45.95;;;22.82;;
77828;SDS011;67019;51.034;3.728;2023-05-10T05:16:19;46.68;;;21.50;;
77828;SDS011;67019;51.034;3.728;2023-05-10T05:18:47;52.85;;;23.40;;
77828;SDS011;67019;51.034;3.728;2023-05-10T05:21:15;42.67;;;21.82;;
77828;SDS011;67019;51.034;3.728;2023-05-10T05:23:43;51.23;;;23.27;;
77828;SDS011;67019;51.034;3.728;2023-05-10T05:26:13;42.95;;;21.77;;
77828;SDS011;67019;51.034;3.728;2023-05-10T05:28:40;43.48;;;22.35;;
77828;SDS011;67019;51.034;3.728;2023-05-10T05:31:08;49.75;;;23.57;;
77828;SDS011;67019;51.034;3.728;2023-05-10T05:33:36;50.70;;;25.40;;
77828;SDS011;67019;51.034;3.728;2023-05-10T05:36:04;51.92;;;23.40;;
77828;SDS011;67019;51.034;3.728;2023-05-10T05:38:35;53.92;;;23.38;;
77828;SDS011;67019;51.034;3.728;2023-05-10T05:41:03;49.00;;;24.87;;
77828;SDS011;67019;51.034;3.728;2023-05-10T05:43:33;54.83;;;25.75;;
77828;SDS011;67019;51.034;3.728;2023-05-10T05:46:01;54.03;;;25.62;;
77828;SDS011;67019;51.034;3.728;2023-05-10T05:48:29;46.48;;;25.23;;
77828;SDS011;67019;51.034;3.728;2023-05-10T05:50:57;55.23;;;25.12;;
77828;SDS011;67019;51.034;3.728;2023-05-10T05:53:25;55.95;;;27.80;;
77828;SDS011;67019;51.034;3.728;2023-05-10T05:55:53;52.78;;;26.45;;
77828;SDS011;67019;51.034;3.728;2023-05-10T05:58:23;57.48;;;26.10;;
77828;SDS011;67019;51.034;3.728;2023-05-10T06:00:51;56.18;;;27.05;;
77828;SDS011;67019;51.034;3.728;2023-05-10T06:03:19;55.50;;;26.35;;
77828;SDS011;67019;51.034;3.728;2023-05-10T06:05:48;55.58;;;25.15;;
77828;SDS011;67019;51.034;3.728;2023-05-10T06:08:16;55.85;;;25.90;;
77828;SDS011;67019;51.034;3.728;2023-05-10T06:10:44;60.55;;;29.12;;
77828;SDS011;67019;51.034;3.728;2023-05-10T06:13:11;52.83;;;24.72;;
77828;SDS011;67019;51.034;3.728;2023-05-10T06:15:40;45.90;;;24.77;;
77828;SDS011;67019;51.034;3.728;2023-05-10T06:18:08;52.10;;;25.10;;
77828;SDS011;67019;51.034;3.728;2023-05-10T06:20:35;48.08;;;24.98;;
77828;SDS011;67019;51.034;3.728;2023-05-10T06:23:03;49.27;;;25.15;;
77828;SDS011;67019;51.034;3.728;2023-05-10T06:25:31;48.45;;;24.45;;
77828;SDS011;67019;51.034;3.728;2023-05-10T06:28:00;57.10;;;23.98;;
77828;SDS011;67019;51.034;3.728;2023-05-10T06:30:27;46.37;;;24.07;;
77828;SDS011;67019;51.034;3.728;2023-05-10T06:32:55;51.33;;;25.72;;
77828;SDS011;67019;51.034;3.728;2023-05-10T06:35:23;50.83;;;24.10;;
77828;SDS011;67019;51.034;3.728;2023-05-10T06:37:50;51.23;;;25.88;;
77828;SDS011;67019;51.034;3.728;2023-05-10T06:40:18;61.23;;;27.13;;
77828;SDS011;67019;51.034;3.728;2023-05-10T06:42:47;61.15;;;27.67;;
77828;SDS011;67019;51.034;3.728;2023-05-10T06:45:15;58.90;;;27.32;;
77828;SDS011;67019;51.034;3.728;2023-05-10T06:47:43;54.63;;;27.27;;
77828;SDS011;67019;51.034;3.728;2023-05-10T06:50:11;64.00;;;28.65;;
77828;SDS011;67019;51.034;3.728;2023-05-10T06:52:39;55.67;;;24.98;;
77828;SDS011;67019;51.034;3.728;2023-05-10T06:55:06;58.65;;;28.45;;
77828;SDS011;67019;51.034;3.728;2023-05-10T06:57:34;54.65;;;27.32;;
77828;SDS011;67019;51.034;3.728;2023-05-10T07:00:02;52.17;;;27.00;;
77828;SDS011;67019;51.034;3.728;2023-05-10T07:02:30;53.33;;;27.32;;
77828;SDS011;67019;51.034;3.728;2023-05-10T07:04:59;48.73;;;24.65;;
77828;SDS011;67019;51.034;3.728;2023-05-10T07:07:26;57.88;;;25.75;;
77828;SDS011;67019;51.034;3.728;2023-05-10T07:09:54;43.65;;;24.72;;
77828;SDS011;67019;51.034;3.728;2023-05-10T07:12:23;50.52;;;24.25;;
77828;SDS011;67019;51.034;3.728;2023-05-10T07:14:52;49.42;;;23.80;;
77828;SDS011;67019;51.034;3.728;2023-05-10T07:17:20;53.80;;;23.12;;
77828;SDS011;67019;51.034;3.728;2023-05-10T07:19:49;46.30;;;23.42;;
77828;SDS011;67019;51.034;3.728;2023-05-10T07:22:17;45.15;;;21.93;;
77828;SDS011;67019;51.034;3.728;2023-05-10T07:24:44;47.88;;;23.05;;
77828;SDS011;67019;51.034;3.728;2023-05-10T07:27:14;46.33;;;22.42;;
77828;SDS011;67019;51.034;3.728;2023-05-10T07:29:41;50.17;;;23.80;;
77828;SDS011;67019;51.034;3.728;2023-05-10T07:32:09;44.88;;;21.80;;
77828;SDS011;67019;51.034;3.728;2023-05-10T07:34:38;51.95;;;26.77;;
77828;SDS011;67019;51.034;3.728;2023-05-10T07:37:05;48.45;;;23.35;;
77828;SDS011;67019;51.034;3.728;2023-05-10T07:39:33;40.05;;;22.35;;
77828;SDS011;67019;51.034;3.728;2023-05-10T07:42:00;40.55;;;21.37;;
77828;SDS011;67019;51.034;3.728;2023-05-10T07:44:28;45.90;;;22.90;;
77828;SDS011;67019;51.034;3.728;2023-05-10T07:46:56;41.73;;;20.40;;
77828;SDS011;67019;51.034;3.728;2023-05-10T07:49:24;45.83;;;21.37;;
77828;SDS011;67019;51.034;3.728;2023-05-10T07:51:52;45.58;;;19.73;;
77828;SDS011;67019;51.034;3.728;2023-05-10T07:54:19;47.80;;;20.43;;
77828;SDS011;67019;51.034;3.728;2023-05-10T07:56:47;39.85;;;20.70;;
77828;SDS011;67019;51.034;3.728;2023-05-10T07:59:15;44.03;;;20.77;;
77828;SDS011;67019;51.034;3.728;2023-05-10T08:01:44;40.83;;;19.20;;
77828;SDS011;67019;51.034;3.728;2023-05-10T08:04:11;42.90;;;20.23;;
77828;SDS011;67019;51.034;3.728;2023-05-10T08:06:39;41.53;;;20.10;;
77828;SDS011;67019;51.034;3.728;2023-05-10T08:09:07;47.62;;;24.98;;
77828;SDS011;67019;51.034;3.728;2023-05-10T08:11:36;50.23;;;22.52;;
77828;SDS011;67019;51.034;3.728;2023-05-10T08:14:04;39.15;;;21.77;;
77828;SDS011;67019;51.034;3.728;2023-05-10T08:16:31;48.63;;;22.30;;
77828;SDS011;67019;51.034;3.728;2023-05-10T08:19:00;49.75;;;22.95;;
77828;SDS011;67019;51.034;3.728;2023-05-10T08:21:27;44.03;;;22.65;;
77828;SDS011;67019;51.034;3.728;2023-05-10T08:23:56;50.48;;;21.25;;
77828;SDS011;67019;51.034;3.728;2023-05-10T08:26:24;39.38;;;20.55;;
77828;SDS011;67019;51.034;3.728;2023-05-10T08:28:52;42.55;;;21.40;;
77828;SDS011;67019;51.034;3.728;2023-05-10T08:31:19;47.70;;;20.35;;
77828;SDS011;67019;51.034;3.728;2023-05-10T08:33:47;52.35;;;19.70;;
77828;SDS011;67019;51.034;3.728;2023-05-10T08:36:15;46.48;;;20.10;;
77828;SDS011;67019;51.034;3.728;2023-05-10T08:38:44;37.38;;;17.80;;
77828;SDS011;67019;51.034;3.728;2023-05-10T08:41:11;40.60;;;18.35;;
77828;SDS011;67019;51.034;3.728;2023-05-10T08:43:40;47.53;;;18.52;;
77828;SDS011;67019;51.034;3.728;2023-05-10T08:46:11;39.33;;;18.45;;
77828;SDS011;67019;51.034;3.728;2023-05-10T08:48:47;46.37;;;18.67;;
77828;SDS011;67019;51.034;3.728;2023-05-10T08:51:19;33.90;;;16.67;;
77828;SDS011;67019;51.034;3.728;2023-05-10T08:53:51;36.17;;;16.77;;
77828;SDS011;67019;51.034;3.728;2023-05-10T08:56:18;34.15;;;17.65;;
77828;SDS011;67019;51.034;3.728;2023-05-10T08:58:46;35.10;;;18.32;;
77828;SDS011;67019;51.034;3.728;2023-05-10T09:01:15;32.53;;;16.07;;
77828;SDS011;67019;51.034;3.728;2023-05-10T09:03:45;36.40;;;16.90;;
77828;SDS011;67019;51.034;3.728;2023-05-10T09:06:13;35.50;;;17.65;;
77828;SDS011;67019;51.034;3.728;2023-05-10T09:08:42;42.43;;;17.65;;
77828;SDS011;67019;51.034;3.728;2023-05-10T09:11:10;33.60;;;16.95;;
77828;SDS011;67019;51.034;3.728;2023-05-10T09:13:39;35.90;;;18.00;;
77828;SDS011;67019;51.034;3.728;2023-05-10T09:16:06;35.63;;;15.70;;
77828;SDS011;67019;51.034;3.728;2023-05-10T09:18:34;33.48;;;17.55;;
77828;SDS011;67019;51.034;3.728;2023-05-10T09:21:03;30.85;;;15.32;;
77828;SDS011;67019;51.034;3.728;2023-05-10T09:23:31;40.25;;;17.95;;
77828;SDS011;67019;51.034;3.728;2023-05-10T09:26:02;32.75;;;16.20;;
77828;SDS011;67019;51.034;3.728;2023-05-10T09:29:07;33.00;;;17.32;;
77828;SDS011;67019;51.034;3.728;2023-05-10T09:31:22;26.90;;;15.55;;
77828;SDS011;67019;51.034;3.728;2023-05-10T09:33:52;30.12;;;15.68;;
77828;SDS011;67019;51.034;3.728;2023-05-10T09:36:20;26.75;;;14.18;;
77828;SDS011;67019;51.034;3.728;2023-05-10T09:38:48;30.85;;;14.47;;
77828;SDS011;67019;51.034;3.728;2023-05-10T09:41:20;27.55;;;14.15;;
77828;SDS011;67019;51.034;3.728;2023-05-10T09:43:51;27.98;;;14.53;;
77828;SDS011;67019;51.034;3.728;2023-05-10T09:46:22;26.33;;;15.10;;
77828;SDS011;67019;51.034;3.728;2023-05-10T09:48:50;26.62;;;14.30;;
77828;SDS011;67019;51.034;3.728;2023-05-10T09:51:21;23.27;;;13.20;;
77828;SDS011;67019;51.034;3.728;2023-05-10T09:54:13;24.75;;;13.72;;
77828;SDS011;67019;51.034;3.728;2023-05-10T09:56:40;22.22;;;12.68;;
77828;SDS011;67019;51.034;3.728;2023-05-10T09:59:09;27.77;;;12.30;;
77828;SDS011;67019;51.034;3.728;2023-05-10T10:01:41;24.55;;;13.10;;
77828;SDS011;67019;51.034;3.728;2023-05-10T10:04:10;29.85;;;11.75;;
77828;SDS011;67019;51.034;3.728;2023-05-10T10:06:38;24.82;;;11.43;;
77828;SDS011;67019;51.034;3.728;2023-05-10T10:09:09;23.50;;;12.30;;
77828;SDS011;67019;51.034;3.728;2023-05-10T10:11:36;24.15;;;13.55;;
77828;SDS011;67019;51.034;3.728;2023-05-10T10:14:05;27.50;;;13.60;;
77828;SDS011;67019;51.034;3.728;2023-05-10T10:16:34;28.95;;;14.13;;
77828;SDS011;67019;51.034;3.728;2023-05-10T10:19:02;24.67;;;12.30;;
77828;SDS011;67019;51.034;3.728;2023-05-10T10:21:29;29.32;;;14.80;;
77828;SDS011;67019;51.034;3.728;2023-05-10T10:23:58;22.98;;;12.75;;
77828;SDS011;67019;51.034;3.728;2023-05-10T10:26:25;22.05;;;13.03;;
77828;SDS011;67019;51.034;3.728;2023-05-10T10:32:00;24.82;;;12.40;;
77828;SDS011;67019;51.034;3.728;2023-05-10T10:34:49;27.45;;;12.68;;
77828;SDS011;67019;51.034;3.728;2023-05-10T10:37:17;23.95;;;11.95;;
77828;SDS011;67019;51.034;3.728;2023-05-10T10:39:45;23.30;;;11.40;;
77828;SDS011;67019;51.034;3.728;2023-05-10T10:42:43;28.98;;;13.68;;
77828;SDS011;67019;51.034;3.728;2023-05-10T10:45:13;23.22;;;13.78;;
77828;SDS011;67019;51.034;3.728;2023-05-10T10:47:40;28.07;;;13.00;;
77828;SDS011;67019;51.034;3.728;2023-05-10T10:50:10;23.45;;;11.33;;
77828;SDS011;67019;51.034;3.728;2023-05-10T10:52:39;19.02;;;11.22;;
77828;SDS011;67019;51.034;3.728;2023-05-10T10:55:14;18.75;;;10.82;;
77828;SDS011;67019;51.034;3.728;2023-05-10T10:57:48;24.15;;;12.28;;
77828;SDS011;67019;51.034;3.728;2023-05-10T11:00:22;21.02;;;11.00;;
77828;SDS011;67019;51.034;3.728;2023-05-10T11:02:58;28.70;;;11.97;;
77828;SDS011;67019;51.034;3.728;2023-05-10T11:05:43;25.10;;;12.82;;
77828;SDS011;67019;51.034;3.728;2023-05-10T11:18:38;22.35;;;13.05;;
77828;SDS011;67019;51.034;3.728;2023-05-10T11:21:08;22.48;;;13.20;;
77828;SDS011;67019;51.034;3.728;2023-05-10T11:26:16;29.55;;;14.53;;
77828;SDS011;67019;51.034;3.728;2023-05-10T11:28:44;32.05;;;16.45;;
77828;SDS011;67019;51.034;3.728;2023-05-10T11:31:15;33.42;;;17.00;;
77828;SDS011;67019;51.034;3.728;2023-05-10T11:33:44;33.78;;;17.45;;
77828;SDS011;67019;51.034;3.728;2023-05-10T11:36:17;37.17;;;19.82;;
77828;SDS011;67019;51.034;3.728;2023-05-10T11:38:46;38.13;;;17.48;;
77828;SDS011;67019;51.034;3.728;2023-05-10T11:41:16;32.40;;;17.70;;
77828;SDS011;67019;51.034;3.728;2023-05-10T11:43:45;30.57;;;18.02;;
77828;SDS011;67019;51.034;3.728;2023-05-10T11:46:15;37.00;;;19.07;;
77828;SDS011;67019;51.034;3.728;2023-05-10T11:48:46;29.90;;;19.05;;
77828;SDS011;67019;51.034;3.728;2023-05-10T11:51:21;33.30;;;18.70;;
77828;SDS011;67019;51.034;3.728;2023-05-10T11:53:52;31.93;;;18.50;;
77828;SDS011;67019;51.034;3.728;2023-05-10T11:56:20;35.03;;;18.90;;
77828;SDS011;67019;51.034;3.728;2023-05-10T11:58:55;28.60;;;18.67;;
77828;SDS011;67019;51.034;3.728;2023-05-10T12:01:24;31.35;;;17.23;;
77828;SDS011;67019;51.034;3.728;2023-05-10T12:03:53;28.02;;;16.57;;
77828;SDS011;67019;51.034;3.728;2023-05-10T12:06:26;33.42;;;18.80;;
77828;SDS011;67019;51.034;3.728;2023-05-10T12:08:54;29.12;;;16.25;;
77828;SDS011;67019;51.034;3.728;2023-05-10T12:11:24;27.22;;;17.55;;
77828;SDS011;67019;51.034;3.728;2023-05-10T12:13:51;28.45;;;17.37;;
77828;SDS011;67019;51.034;3.728;2023-05-10T12:16:23;26.87;;;16.80;;
77828;SDS011;67019;51.034;3.728;2023-05-10T12:18:53;26.85;;;16.25;;
77828;SDS011;67019;51.034;3.728;2023-05-10T12:21:23;26.42;;;17.32;;
77828;SDS011;67019;51.034;3.728;2023-05-10T12:23:53;26.42;;;15.45;;
77828;SDS011;67019;51.034;3.728;2023-05-10T12:26:22;26.90;;;18.90;;
77828;SDS011;67019;51.034;3.728;2023-05-10T12:28:55;28.67;;;15.83;;
77828;SDS011;67019;51.034;3.728;2023-05-10T12:31:53;23.98;;;15.03;;
77828;SDS011;67019;51.034;3.728;2023-05-10T12:34:31;24.82;;;15.38;;
77828;SDS011;67019;51.034;3.728;2023-05-10T12:37:02;25.88;;;14.18;;
77828;SDS011;67019;51.034;3.728;2023-05-10T12:39:39;22.40;;;15.35;;
77828;SDS011;67019;51.034;3.728;2023-05-10T12:42:08;31.80;;;16.57;;
77828;SDS011;67019;51.034;3.728;2023-05-10T12:44:36;25.37;;;15.55;;
77828;SDS011;67019;51.034;3.728;2023-05-10T12:47:05;26.27;;;15.38;;
77828;SDS011;67019;51.034;3.728;2023-05-10T12:49:33;26.65;;;16.82;;
77828;SDS011;67019;51.034;3.728;2023-05-10T12:52:02;25.70;;;15.25;;
77828;SDS011;67019;51.034;3.728;2023-05-10T12:54:31;25.80;;;16.67;;
77828;SDS011;67019;51.034;3.728;2023-05-10T12:56:59;28.02;;;17.62;;
77828;SDS011;67019;51.034;3.728;2023-05-10T12:59:27;28.27;;;18.27;;
77828;SDS011;67019;51.034;3.728;2023-05-10T13:01:55;33.58;;;19.12;;
77828;SDS011;67019;51.034;3.728;2023-05-10T13:04:23;59.88;;;35.85;;
77828;SDS011;67019;51.034;3.728;2023-05-10T13:06:51;38.08;;;20.80;;
77828;SDS011;67019;51.034;3.728;2023-05-10T13:09:20;31.35;;;19.52;;
77828;SDS011;67019;51.034;3.728;2023-05-10T13:11:48;35.13;;;21.10;;
77828;SDS011;67019;51.034;3.728;2023-05-10T13:14:16;35.30;;;22.85;;
77828;SDS011;67019;51.034;3.728;2023-05-10T13:16:45;34.92;;;19.70;;
77828;SDS011;67019;51.034;3.728;2023-05-10T13:19:13;25.85;;;16.23;;
77828;SDS011;67019;51.034;3.728;2023-05-10T13:21:42;32.67;;;16.25;;
77828;SDS011;67019;51.034;3.728;2023-05-10T13:24:11;39.92;;;19.27;;
77828;SDS011;67019;51.034;3.728;2023-05-10T13:26:43;26.00;;;14.40;;
77828;SDS011;67019;51.034;3.728;2023-05-10T13:29:12;26.35;;;14.58;;
77828;SDS011;67019;51.034;3.728;2023-05-10T13:31:41;24.55;;;14.85;;
77828;SDS011;67019;51.034;3.728;2023-05-10T13:34:09;24.10;;;15.48;;
77828;SDS011;67019;51.034;3.728;2023-05-10T13:36:36;31.07;;;16.90;;
77828;SDS011;67019;51.034;3.728;2023-05-10T13:39:04;38.08;;;20.23;;
77828;SDS011;67019;51.034;3.728;2023-05-10T13:41:32;35.35;;;18.92;;
77828;SDS011;67019;51.034;3.728;2023-05-10T13:43:59;36.88;;;18.15;;
77828;SDS011;67019;51.034;3.728;2023-05-10T13:46:28;39.25;;;21.27;;
77828;SDS011;67019;51.034;3.728;2023-05-10T13:48:56;41.05;;;22.42;;
77828;SDS011;67019;51.034;3.728;2023-05-10T13:51:24;33.83;;;22.42;;
77828;SDS011;67019;51.034;3.728;2023-05-10T13:53:51;33.35;;;20.37;;
77828;SDS011;67019;51.034;3.728;2023-05-10T13:56:19;38.48;;;21.48;;
77828;SDS011;67019;51.034;3.728;2023-05-10T13:58:47;41.23;;;20.90;;
77828;SDS011;67019;51.034;3.728;2023-05-10T14:01:14;41.85;;;19.27;;
77828;SDS011;67019;51.034;3.728;2023-05-10T14:03:42;41.68;;;21.55;;
77828;SDS011;67019;51.034;3.728;2023-05-10T14:06:10;39.85;;;20.45;;
77828;SDS011;67019;51.034;3.728;2023-05-10T14:08:37;36.00;;;20.25;;
77828;SDS011;67019;51.034;3.728;2023-05-10T14:11:05;39.08;;;20.08;;
77828;SDS011;67019;51.034;3.728;2023-05-10T14:13:33;37.70;;;19.80;;
77828;SDS011;67019;51.034;3.728;2023-05-10T14:16:01;38.00;;;19.55;;
77828;SDS011;67019;51.034;3.728;2023-05-10T14:18:28;33.75;;;18.82;;
77828;SDS011;67019;51.034;3.728;2023-05-10T14:20:56;35.58;;;19.20;;
77828;SDS011;67019;51.034;3.728;2023-05-10T14:23:24;34.83;;;19.98;;
77828;SDS011;67019;51.034;3.728;2023-05-10T14:25:54;31.35;;;17.65;;
77828;SDS011;67019;51.034;3.728;2023-05-10T14:28:22;36.13;;;18.25;;
77828;SDS011;67019;51.034;3.728;2023-05-10T14:30:50;37.67;;;18.73;;
77828;SDS011;67019;51.034;3.728;2023-05-10T14:33:18;38.67;;;19.42;;
77828;SDS011;67019;51.034;3.728;2023-05-10T14:35:46;35.65;;;18.87;;
77828;SDS011;67019;51.034;3.728;2023-05-10T14:38:14;28.25;;;14.63;;
77828;SDS011;67019;51.034;3.728;2023-05-10T14:40:42;26.80;;;13.55;;
77828;SDS011;67019;51.034;3.728;2023-05-10T14:43:09;27.60;;;16.30;;
77828;SDS011;67019;51.034;3.728;2023-05-10T14:45:37;26.05;;;13.78;;
77828;SDS011;67019;51.034;3.728;2023-05-10T14:48:07;19.67;;;12.93;;
77828;SDS011;67019;51.034;3.728;2023-05-10T14:50:37;22.05;;;11.12;;
77828;SDS011;67019;51.034;3.728;2023-05-10T14:53:05;25.05;;;12.75;;
77828;SDS011;67019;51.034;3.728;2023-05-10T14:55:33;25.37;;;10.93;;
77828;SDS011;67019;51.034;3.728;2023-05-10T14:58:02;25.95;;;11.90;;
77828;SDS011;67019;51.034;3.728;2023-05-10T15:00:30;27.07;;;11.48;;
77828;SDS011;67019;51.034;3.728;2023-05-10T15:02:58;21.45;;;11.53;;
77828;SDS011;67019;51.034;3.728;2023-05-10T15:05:27;29.52;;;10.75;;
77828;SDS011;67019;51.034;3.728;2023-05-10T15:07:55;21.57;;;9.73;;
77828;SDS011;67019;51.034;3.728;2023-05-10T15:10:23;17.40;;;9.58;;
77828;SDS011;67019;51.034;3.728;2023-05-10T15:12:50;20.88;;;8.33;;
77828;SDS011;67019;51.034;3.728;2023-05-10T15:15:18;18.27;;;8.20;;